sensor_id;sensor_type;location;lat;lon;timestamp;pressure;altitude;pressure_sealevel;temperature;humidity
45541;BME280;31265;49.680;8.608;2022-09-17T00:01:27;100215.97;;;7.03;100.00
45541;BME280;31265;49.680;8.608;2022-09-17T00:03:59;100214.69;;;7.04;100.00
45541;BME280;31265;49.680;8.608;2022-09-17T00:06:32;100217.78;;;7.00;100.00
45541;BME280;31265;49.680;8.608;2022-09-17T00:09:02;100216.69;;;7.03;100.00
45541;BME280;31265;49.680;8.608;2022-09-17T00:11:33;100214.88;;;7.06;100.00
45541;BME280;31265;49.680;8.608;2022-09-17T00:14:03;100215.47;;;7.12;100.00
45541;BME280;31265;49.680;8.608;2022-09-17T00:16:33;100216.66;;;7.24;100.00
45541;BME280;31265;49.680;8.608;2022-09-17T00:19:04;100215.41;;;7.25;100.00
45541;BME280;31265;49.680;8.608;2022-09-17T00:21:32;100215.41;;;7.25;100.00
45541;BME280;31265;49.680;8.608;2022-09-17T00:24:03;100226.03;;;7.21;100.00
45541;BME280;31265;49.680;8.608;2022-09-17T00:26:32;100222.88;;;7.17;100.00
45541;BME280;31265;49.680;8.608;2022-09-17T00:29:03;100220.59;;;7.08;100.00
45541;BME280;31265;49.680;8.608;2022-09-17T00:31:32;100217.44;;;7.04;100.00
45541;BME280;31265;49.680;8.608;2022-09-17T00:34:03;100221.28;;;7.01;100.00
45541;BME280;31265;49.680;8.608;2022-09-17T00:36:33;100212.59;;;6.97;100.00
45541;BME280;31265;49.680;8.608;2022-09-17T00:39:02;100226.00;;;6.93;100.00
45541;BME280;31265;49.680;8.608;2022-09-17T00:41:31;100214.56;;;6.88;100.00
45541;BME280;31265;49.680;8.608;2022-09-17T00:44:00;100223.03;;;6.91;100.00
45541;BME280;31265;49.680;8.608;2022-09-17T00:46:33;100229.44;;;6.85;100.00
45541;BME280;31265;49.680;8.608;2022-09-17T00:49:06;100223.84;;;6.78;100.00
45541;BME280;31265;49.680;8.608;2022-09-17T00:51:40;100226.63;;;6.78;100.00
45541;BME280;31265;49.680;8.608;2022-09-17T00:54:11;100229.56;;;6.80;100.00
45541;BME280;31265;49.680;8.608;2022-09-17T00:56:40;100230.63;;;6.77;100.00
45541;BME280;31265;49.680;8.608;2022-09-17T00:59:09;100238.16;;;6.76;100.00
45541;BME280;31265;49.680;8.608;2022-09-17T01:01:38;100234.34;;;6.79;100.00
45541;BME280;31265;49.680;8.608;2022-09-17T01:04:14;100229.38;;;6.78;100.00
45541;BME280;31265;49.680;8.608;2022-09-17T01:06:49;100229.44;;;6.85;100.00
45541;BME280;31265;49.680;8.608;2022-09-17T01:09:27;100231.19;;;6.75;100.00
45541;BME280;31265;49.680;8.608;2022-09-17T01:12:18;100231.91;;;6.76;100.00
45541;BME280;31265;49.680;8.608;2022-09-17T01:15:00;100233.94;;;6.75;100.00
45541;BME280;31265;49.680;8.608;2022-09-17T01:17:38;100232.25;;;6.72;100.00
45541;BME280;31265;49.680;8.608;2022-09-17T01:20:34;100233.31;;;6.69;100.00
45541;BME280;31265;49.680;8.608;2022-09-17T01:23:25;100236.09;;;6.69;100.00
45541;BME280;31265;49.680;8.608;2022-09-17T01:26:11;100239.28;;;6.60;100.00
45541;BME280;31265;49.680;8.608;2022-09-17T01:28:50;100247.16;;;6.56;100.00
45541;BME280;31265;49.680;8.608;2022-09-17T01:31:29;100247.84;;;6.49;100.00
45541;BME280;31265;49.680;8.608;2022-09-17T01:34:07;100251.84;;;6.47;100.00
45541;BME280;31265;49.680;8.608;2022-09-17T01:36:44;100251.13;;;6.47;100.00
45541;BME280;31265;49.680;8.608;2022-09-17T01:39:26;100252.63;;;6.48;100.00
45541;BME280;31265;49.680;8.608;2022-09-17T01:42:00;100257.78;;;6.52;100.00
45541;BME280;31265;49.680;8.608;2022-09-17T01:44:34;100255.44;;;6.56;100.00
45541;BME280;31265;49.680;8.608;2022-09-17T01:47:09;100261.47;;;6.54;100.00
45541;BME280;31265;49.680;8.608;2022-09-17T01:49:48;100267.34;;;6.51;100.00
45541;BME280;31265;49.680;8.608;2022-09-17T01:52:18;100260.88;;;6.48;100.00
45541;BME280;31265;49.680;8.608;2022-09-17T01:54:50;100256.97;;;6.43;100.00
45541;BME280;31265;49.680;8.608;2022-09-17T01:57:24;100253.78;;;6.39;100.00
45541;BME280;31265;49.680;8.608;2022-09-17T01:59:57;100249.66;;;6.46;100.00
45541;BME280;31265;49.680;8.608;2022-09-17T02:02:40;100251.84;;;6.47;100.00
45541;BME280;31265;49.680;8.608;2022-09-17T02:05:14;100260.00;;;6.53;100.00
45541;BME280;31265;49.680;8.608;2022-09-17T02:07:46;100254.97;;;6.65;100.00
45541;BME280;31265;49.680;8.608;2022-09-17T02:10:19;100253.25;;;6.75;100.00
45541;BME280;31265;49.680;8.608;2022-09-17T02:12:52;100254.94;;;6.78;100.00
45541;BME280;31265;49.680;8.608;2022-09-17T02:15:25;100259.03;;;6.85;100.00
45541;BME280;31265;49.680;8.608;2022-09-17T02:17:58;100259.50;;;6.97;100.00
45541;BME280;31265;49.680;8.608;2022-09-17T02:20:36;100268.38;;;7.03;100.00
45541;BME280;31265;49.680;8.608;2022-09-17T02:23:10;100263.13;;;7.13;100.00
45541;BME280;31265;49.680;8.608;2022-09-17T02:25:45;100259.88;;;7.22;100.00
45541;BME280;31265;49.680;8.608;2022-09-17T02:28:18;100268.03;;;7.27;100.00
45541;BME280;31265;49.680;8.608;2022-09-17T02:30:51;100277.47;;;7.32;100.00
45541;BME280;31265;49.680;8.608;2022-09-17T02:33:21;100275.06;;;7.36;100.00
45541;BME280;31265;49.680;8.608;2022-09-17T02:35:49;100269.22;;;7.40;100.00
45541;BME280;31265;49.680;8.608;2022-09-17T02:38:22;100263.03;;;7.47;100.00
45541;BME280;31265;49.680;8.608;2022-09-17T02:40:55;100262.13;;;7.52;100.00
45541;BME280;31265;49.680;8.608;2022-09-17T02:43:35;100251.47;;;7.56;100.00
45541;BME280;31265;49.680;8.608;2022-09-17T02:46:23;100259.41;;;7.60;100.00
45541;BME280;31265;49.680;8.608;2022-09-17T02:49:13;100257.59;;;7.62;100.00
45541;BME280;31265;49.680;8.608;2022-09-17T02:51:47;100267.19;;;7.69;100.00
45541;BME280;31265;49.680;8.608;2022-09-17T02:54:24;100254.50;;;7.73;100.00
45541;BME280;31265;49.680;8.608;2022-09-17T02:57:04;100254.56;;;7.81;100.00
45541;BME280;31265;49.680;8.608;2022-09-17T02:59:37;100255.47;;;7.84;100.00
45541;BME280;31265;49.680;8.608;2022-09-17T03:02:11;100251.66;;;7.87;100.00
45541;BME280;31265;49.680;8.608;2022-09-17T03:04:47;100247.78;;;7.90;100.00
45541;BME280;31265;49.680;8.608;2022-09-17T03:07:18;100257.22;;;7.94;100.00
45541;BME280;31265;49.680;8.608;2022-09-17T03:09:46;100257.78;;;8.01;100.00
45541;BME280;31265;49.680;8.608;2022-09-17T03:12:14;100254.88;;;8.06;100.00
45541;BME280;31265;49.680;8.608;2022-09-17T03:14:43;100250.28;;;8.09;100.00
45541;BME280;31265;49.680;8.608;2022-09-17T03:17:11;100236.28;;;8.14;100.00
45541;BME280;31265;49.680;8.608;2022-09-17T03:19:40;100239.59;;;8.13;100.00
45541;BME280;31265;49.680;8.608;2022-09-17T03:22:09;100238.53;;;8.16;100.00
45541;BME280;31265;49.680;8.608;2022-09-17T03:24:38;100237.22;;;8.17;100.00
45541;BME280;31265;49.680;8.608;2022-09-17T03:27:06;100235.19;;;8.17;100.00
45541;BME280;31265;49.680;8.608;2022-09-17T03:29:34;100253.28;;;8.18;100.00
45541;BME280;31265;49.680;8.608;2022-09-17T03:32:02;100245.34;;;8.23;100.00
45541;BME280;31265;49.680;8.608;2022-09-17T03:34:31;100250.88;;;8.23;100.00
45541;BME280;31265;49.680;8.608;2022-09-17T03:36:59;100251.06;;;8.25;100.00
45541;BME280;31265;49.680;8.608;2022-09-17T03:39:29;100256.78;;;8.27;100.00
45541;BME280;31265;49.680;8.608;2022-09-17T03:41:57;100260.81;;;8.26;100.00
45541;BME280;31265;49.680;8.608;2022-09-17T03:44:25;100259.56;;;8.27;100.00
45541;BME280;31265;49.680;8.608;2022-09-17T03:46:53;100259.19;;;8.30;100.00
45541;BME280;31265;49.680;8.608;2022-09-17T03:49:21;100255.88;;;8.24;100.00
45541;BME280;31265;49.680;8.608;2022-09-17T03:51:49;100276.34;;;8.29;100.00
45541;BME280;31265;49.680;8.608;2022-09-17T03:54:17;100265.47;;;8.31;100.00
45541;BME280;31265;49.680;8.608;2022-09-17T03:56:47;100268.59;;;8.27;100.00
45541;BME280;31265;49.680;8.608;2022-09-17T03:59:15;100269.50;;;8.30;100.00
45541;BME280;31265;49.680;8.608;2022-09-17T04:01:43;100276.53;;;8.31;100.00
45541;BME280;31265;49.680;8.608;2022-09-17T04:04:11;100277.59;;;8.28;100.00
45541;BME280;31265;49.680;8.608;2022-09-17T04:06:39;100271.75;;;8.39;100.00
45541;BME280;31265;49.680;8.608;2022-09-17T04:09:07;100271.94;;;8.33;100.00
45541;BME280;31265;49.680;8.608;2022-09-17T04:11:35;100276.91;;;8.35;100.00
45541;BME280;31265;49.680;8.608;2022-09-17T04:14:04;100282.22;;;8.33;100.00
45541;BME280;31265;49.680;8.608;2022-09-17T04:16:33;100279.47;;;8.33;100.00
45541;BME280;31265;49.680;8.608;2022-09-17T04:19:01;100276.91;;;8.35;100.00
45541;BME280;31265;49.680;8.608;2022-09-17T04:21:29;100279.66;;;8.35;100.00
45541;BME280;31265;49.680;8.608;2022-09-17T04:23:57;100276.75;;;8.40;100.00
45541;BME280;31265;49.680;8.608;2022-09-17T04:26:25;100279.31;;;8.38;100.00
45541;BME280;31265;49.680;8.608;2022-09-17T04:28:53;100265.50;;;8.38;100.00
45541;BME280;31265;49.680;8.608;2022-09-17T04:31:23;100275.63;;;8.36;100.00
45541;BME280;31265;49.680;8.608;2022-09-17T04:33:52;100271.38;;;8.35;100.00
45541;BME280;31265;49.680;8.608;2022-09-17T04:36:21;100272.28;;;8.37;100.00
45541;BME280;31265;49.680;8.608;2022-09-17T04:38:49;100277.69;;;8.43;100.00
45541;BME280;31265;49.680;8.608;2022-09-17T04:41:17;100276.94;;;8.43;100.00
45541;BME280;31265;49.680;8.608;2022-09-17T04:43:45;100281.22;;;8.44;100.00
45541;BME280;31265;49.680;8.608;2022-09-17T04:46:13;100282.66;;;8.45;100.00
45541;BME280;31265;49.680;8.608;2022-09-17T04:48:43;100290.44;;;8.46;100.00
45541;BME280;31265;49.680;8.608;2022-09-17T04:51:11;100287.28;;;8.50;100.00
45541;BME280;31265;49.680;8.608;2022-09-17T04:53:39;100292.28;;;8.51;100.00
45541;BME280;31265;49.680;8.608;2022-09-17T04:56:07;100286.75;;;8.51;100.00
45541;BME280;31265;49.680;8.608;2022-09-17T04:58:35;100291.56;;;8.51;100.00
45541;BME280;31265;49.680;8.608;2022-09-17T05:01:03;100294.84;;;8.49;100.00
45541;BME280;31265;49.680;8.608;2022-09-17T05:03:32;100299.47;;;8.54;100.00
45541;BME280;31265;49.680;8.608;2022-09-17T05:06:01;100295.97;;;8.54;100.00
45541;BME280;31265;49.680;8.608;2022-09-17T05:08:29;100304.28;;;8.54;100.00
45541;BME280;31265;49.680;8.608;2022-09-17T05:10:57;100306.47;;;8.55;100.00
45541;BME280;31265;49.680;8.608;2022-09-17T05:13:25;100311.28;;;8.55;100.00
45541;BME280;31265;49.680;8.608;2022-09-17T05:15:53;100307.78;;;8.54;100.00
45541;BME280;31265;49.680;8.608;2022-09-17T05:18:22;100311.84;;;8.53;100.00
45541;BME280;31265;49.680;8.608;2022-09-17T05:20:51;100309.63;;;8.52;100.00
45541;BME280;31265;49.680;8.608;2022-09-17T05:23:20;100309.63;;;8.52;100.00
45541;BME280;31265;49.680;8.608;2022-09-17T05:25:48;100307.59;;;8.52;100.00
45541;BME280;31265;49.680;8.608;2022-09-17T05:28:16;100312.91;;;8.50;100.00
45541;BME280;31265;49.680;8.608;2022-09-17T05:30:44;100311.84;;;8.53;100.00
45541;BME280;31265;49.680;8.608;2022-09-17T05:33:12;100316.59;;;8.53;100.00
45541;BME280;31265;49.680;8.608;2022-09-17T05:35:40;100321.44;;;8.60;100.00
45541;BME280;31265;49.680;8.608;2022-09-17T05:38:09;100327.53;;;8.58;100.00
45541;BME280;31265;49.680;8.608;2022-09-17T05:40:39;100318.47;;;8.58;100.00
45541;BME280;31265;49.680;8.608;2022-09-17T05:43:08;100327.16;;;8.62;100.00
45541;BME280;31265;49.680;8.608;2022-09-17T05:45:37;100328.78;;;8.57;100.00
45541;BME280;31265;49.680;8.608;2022-09-17T05:48:06;100336.94;;;8.63;100.00
45541;BME280;31265;49.680;8.608;2022-09-17T05:50:35;100340.59;;;8.58;100.00
45541;BME280;31265;49.680;8.608;2022-09-17T05:53:03;100340.25;;;8.61;100.00
45541;BME280;31265;49.680;8.608;2022-09-17T05:55:32;100342.31;;;8.69;100.00
45541;BME280;31265;49.680;8.608;2022-09-17T05:58:09;100344.91;;;8.74;100.00
45541;BME280;31265;49.680;8.608;2022-09-17T06:00:38;100345.09;;;8.76;100.00
45541;BME280;31265;49.680;8.608;2022-09-17T06:03:07;100344.00;;;8.79;100.00
45541;BME280;31265;49.680;8.608;2022-09-17T06:05:35;100348.06;;;8.86;100.00
45541;BME280;31265;49.680;8.608;2022-09-17T06:08:03;100347.34;;;8.93;100.00
45541;BME280;31265;49.680;8.608;2022-09-17T06:10:31;100346.97;;;8.97;100.00
45541;BME280;31265;49.680;8.608;2022-09-17T06:12:59;100351.25;;;9.06;100.00
45541;BME280;31265;49.680;8.608;2022-09-17T06:15:28;100333.53;;;9.09;100.00
45541;BME280;31265;49.680;8.608;2022-09-17T06:17:56;100349.22;;;9.21;100.00
45541;BME280;31265;49.680;8.608;2022-09-17T06:20:24;100342.63;;;9.32;100.00
45541;BME280;31265;49.680;8.608;2022-09-17T06:22:55;100345.19;;;9.30;100.00
45541;BME280;31265;49.680;8.608;2022-09-17T06:25:23;100348.16;;;9.32;100.00
45541;BME280;31265;49.680;8.608;2022-09-17T06:27:52;100345.19;;;9.38;100.00
45541;BME280;31265;49.680;8.608;2022-09-17T06:30:20;100347.75;;;9.59;100.00
45541;BME280;31265;49.680;8.608;2022-09-17T06:32:49;100348.31;;;9.80;100.00
45541;BME280;31265;49.680;8.608;2022-09-17T06:35:17;100354.22;;;9.69;100.00
45541;BME280;31265;49.680;8.608;2022-09-17T06:37:46;100347.75;;;9.89;100.00
45541;BME280;31265;49.680;8.608;2022-09-17T06:40:14;100350.69;;;9.92;100.00
45541;BME280;31265;49.680;8.608;2022-09-17T06:42:43;100359.56;;;9.90;100.00
45541;BME280;31265;49.680;8.608;2022-09-17T06:45:11;100359.75;;;9.84;100.00
45541;BME280;31265;49.680;8.608;2022-09-17T06:47:42;100361.41;;;9.87;100.00
45541;BME280;31265;49.680;8.608;2022-09-17T06:50:12;100361.78;;;9.76;100.00
45541;BME280;31265;49.680;8.608;2022-09-17T06:52:46;100365.88;;;9.75;100.00
45541;BME280;31265;49.680;8.608;2022-09-17T06:55:15;100357.94;;;9.79;100.00
45541;BME280;31265;49.680;8.608;2022-09-17T06:57:43;100356.97;;;9.69;100.00
45541;BME280;31265;49.680;8.608;2022-09-17T07:00:12;100358.28;;;9.76;100.00
45541;BME280;31265;49.680;8.608;2022-09-17T07:02:40;100354.78;;;9.75;100.00
45541;BME280;31265;49.680;8.608;2022-09-17T07:05:08;100362.50;;;10.00;100.00
45541;BME280;31265;49.680;8.608;2022-09-17T07:07:38;100360.56;;;10.48;100.00
45541;BME280;31265;49.680;8.608;2022-09-17T07:10:07;100357.66;;;10.71;100.00
45541;BME280;31265;49.680;8.608;2022-09-17T07:12:39;100356.13;;;10.38;100.00
45541;BME280;31265;49.680;8.608;2022-09-17T07:15:10;100362.53;;;10.55;100.00
45541;BME280;31265;49.680;8.608;2022-09-17T07:17:39;100357.81;;;10.81;100.00
45541;BME280;31265;49.680;8.608;2022-09-17T07:20:09;100355.34;;;10.85;100.00
45541;BME280;31265;49.680;8.608;2022-09-17T07:22:38;100356.34;;;10.72;100.00
45541;BME280;31265;49.680;8.608;2022-09-17T07:25:07;100364.16;;;10.66;100.00
45541;BME280;31265;49.680;8.608;2022-09-17T07:27:35;100368.16;;;10.81;100.00
45541;BME280;31265;49.680;8.608;2022-09-17T07:30:04;100372.03;;;11.18;100.00
45541;BME280;31265;49.680;8.608;2022-09-17T07:32:33;100386.03;;;11.28;100.00
45541;BME280;31265;49.680;8.608;2022-09-17T07:35:03;100378.44;;;11.53;100.00
45541;BME280;31265;49.680;8.608;2022-09-17T07:37:31;100373.47;;;11.94;100.00
45541;BME280;31265;49.680;8.608;2022-09-17T07:40:01;100377.88;;;12.50;100.00
45541;BME280;31265;49.680;8.608;2022-09-17T07:42:31;100385.38;;;13.01;100.00
45541;BME280;31265;49.680;8.608;2022-09-17T07:44:59;100380.97;;;12.71;100.00
45541;BME280;31265;49.680;8.608;2022-09-17T07:47:28;100386.78;;;12.93;100.00
45541;BME280;31265;49.680;8.608;2022-09-17T07:49:56;100383.25;;;13.19;100.00
45541;BME280;31265;49.680;8.608;2022-09-17T07:52:24;100383.88;;;13.54;100.00
45541;BME280;31265;49.680;8.608;2022-09-17T07:54:52;100378.69;;;13.41;100.00
45541;BME280;31265;49.680;8.608;2022-09-17T07:57:21;100379.19;;;13.57;100.00
45541;BME280;31265;49.680;8.608;2022-09-17T07:59:49;100379.97;;;13.03;100.00
45541;BME280;31265;49.680;8.608;2022-09-17T08:02:17;100374.44;;;13.40;100.00
45541;BME280;31265;49.680;8.608;2022-09-17T08:04:50;100377.81;;;12.84;100.00
45541;BME280;31265;49.680;8.608;2022-09-17T08:07:18;100378.31;;;13.00;100.00
45541;BME280;31265;49.680;8.608;2022-09-17T08:09:46;100372.22;;;13.39;100.00
45541;BME280;31265;49.680;8.608;2022-09-17T08:12:16;100376.47;;;13.40;100.00
45541;BME280;31265;49.680;8.608;2022-09-17T08:14:46;100366.88;;;13.60;100.00
45541;BME280;31265;49.680;8.608;2022-09-17T08:17:14;100369.75;;;13.52;100.00
45541;BME280;31265;49.680;8.608;2022-09-17T08:19:43;100364.50;;;13.57;100.00
45541;BME280;31265;49.680;8.608;2022-09-17T08:22:11;100361.84;;;13.49;100.00
45541;BME280;31265;49.680;8.608;2022-09-17T08:24:39;100363.44;;;13.42;100.00
45541;BME280;31265;49.680;8.608;2022-09-17T08:27:08;100370.91;;;13.96;100.00
45541;BME280;31265;49.680;8.608;2022-09-17T08:29:36;100369.69;;;13.80;100.00
45541;BME280;31265;49.680;8.608;2022-09-17T08:32:05;100370.34;;;13.41;100.00
45541;BME280;31265;49.680;8.608;2022-09-17T08:34:33;100358.47;;;13.41;100.00
45541;BME280;31265;49.680;8.608;2022-09-17T08:37:02;100371.22;;;13.17;100.00
45541;BME280;31265;49.680;8.608;2022-09-17T08:39:30;100370.06;;;13.20;100.00
45541;BME280;31265;49.680;8.608;2022-09-17T08:42:05;100372.56;;;13.16;100.00
45541;BME280;31265;49.680;8.608;2022-09-17T08:44:39;100372.75;;;13.64;100.00
45541;BME280;31265;49.680;8.608;2022-09-17T08:47:14;100382.34;;;14.00;100.00
45541;BME280;31265;49.680;8.608;2022-09-17T08:49:48;100395.69;;;13.92;100.00
45541;BME280;31265;49.680;8.608;2022-09-17T08:55:29;100388.94;;;13.85;100.00
45541;BME280;31265;49.680;8.608;2022-09-17T08:58:22;100380.59;;;13.95;100.00
45541;BME280;31265;49.680;8.608;2022-09-17T09:00:57;100388.25;;;14.62;100.00
45541;BME280;31265;49.680;8.608;2022-09-17T09:03:44;100379.00;;;15.83;100.00
45541;BME280;31265;49.680;8.608;2022-09-17T09:06:14;100369.34;;;15.74;100.00
45541;BME280;31265;49.680;8.608;2022-09-17T09:08:47;100381.41;;;15.67;100.00
45541;BME280;31265;49.680;8.608;2022-09-17T09:11:22;100375.13;;;16.31;100.00
45541;BME280;31265;49.680;8.608;2022-09-17T09:13:55;100375.09;;;15.98;100.00
45541;BME280;31265;49.680;8.608;2022-09-17T09:16:27;100369.69;;;15.59;100.00
45541;BME280;31265;49.680;8.608;2022-09-17T09:19:04;100374.47;;;15.46;100.00
45541;BME280;31265;49.680;8.608;2022-09-17T09:21:45;100372.69;;;15.51;100.00
45541;BME280;31265;49.680;8.608;2022-09-17T09:24:21;100371.69;;;15.78;98.55
45541;BME280;31265;49.680;8.608;2022-09-17T09:26:55;100369.25;;;16.27;95.51
45541;BME280;31265;49.680;8.608;2022-09-17T09:29:37;100373.25;;;16.24;89.06
45541;BME280;31265;49.680;8.608;2022-09-17T09:32:18;100379.78;;;16.17;93.39
45541;BME280;31265;49.680;8.608;2022-09-17T09:34:52;100374.81;;;16.82;76.75
45541;BME280;31265;49.680;8.608;2022-09-17T09:37:25;100374.84;;;16.60;74.40
45541;BME280;31265;49.680;8.608;2022-09-17T09:39:56;100374.94;;;16.84;72.71
45541;BME280;31265;49.680;8.608;2022-09-17T09:42:30;100374.88;;;17.29;80.20
45541;BME280;31265;49.680;8.608;2022-09-17T09:45:00;100366.69;;;17.45;68.37
45541;BME280;31265;49.680;8.608;2022-09-17T09:47:43;100371.56;;;17.32;69.73
45541;BME280;31265;49.680;8.608;2022-09-17T09:50:31;100378.63;;;16.31;76.54
45541;BME280;31265;49.680;8.608;2022-09-17T09:53:28;100370.03;;;16.72;72.02
45541;BME280;31265;49.680;8.608;2022-09-17T09:56:05;100378.50;;;16.29;76.36
45541;BME280;31265;49.680;8.608;2022-09-17T09:58:38;100374.28;;;15.54;86.60
45541;BME280;31265;49.680;8.608;2022-09-17T10:01:10;100383.31;;;15.74;85.59
45541;BME280;31265;49.680;8.608;2022-09-17T10:03:42;100382.53;;;16.60;82.66
45541;BME280;31265;49.680;8.608;2022-09-17T10:06:13;100378.03;;;17.58;72.70
45541;BME280;31265;49.680;8.608;2022-09-17T10:09:08;100378.72;;;17.94;68.14
45541;BME280;31265;49.680;8.608;2022-09-17T10:11:37;100368.53;;;17.40;77.87
45541;BME280;31265;49.680;8.608;2022-09-17T10:14:21;100371.97;;;18.11;63.14
45541;BME280;31265;49.680;8.608;2022-09-17T10:17:09;100369.78;;;18.86;58.90
45541;BME280;31265;49.680;8.608;2022-09-17T10:19:38;100361.22;;;19.38;55.86
45541;BME280;31265;49.680;8.608;2022-09-17T10:22:22;100368.00;;;18.54;56.67
45541;BME280;31265;49.680;8.608;2022-09-17T10:24:52;100375.91;;;18.06;57.76
45541;BME280;31265;49.680;8.608;2022-09-17T10:27:22;100358.28;;;17.09;77.57
45541;BME280;31265;49.680;8.608;2022-09-17T10:29:57;100353.66;;;17.14;65.84
45541;BME280;31265;49.680;8.608;2022-09-17T10:32:29;100368.31;;;16.34;76.40
45541;BME280;31265;49.680;8.608;2022-09-17T10:34:59;100376.75;;;15.91;79.97
45541;BME280;31265;49.680;8.608;2022-09-17T10:37:42;100396.81;;;15.15;93.81
45541;BME280;31265;49.680;8.608;2022-09-17T10:40:30;100405.47;;;14.59;100.00
45541;BME280;31265;49.680;8.608;2022-09-17T10:43:20;100411.72;;;14.11;100.00
45541;BME280;31265;49.680;8.608;2022-09-17T10:45:57;100409.78;;;13.84;100.00
45541;BME280;31265;49.680;8.608;2022-09-17T10:48:29;100407.56;;;13.36;100.00
45541;BME280;31265;49.680;8.608;2022-09-17T10:50:59;100403.28;;;13.72;100.00
45541;BME280;31265;49.680;8.608;2022-09-17T10:53:30;100401.84;;;13.81;100.00
45541;BME280;31265;49.680;8.608;2022-09-17T10:56:05;100390.31;;;14.23;100.00
45541;BME280;31265;49.680;8.608;2022-09-17T10:58:48;100389.13;;;14.75;100.00
45541;BME280;31265;49.680;8.608;2022-09-17T11:01:31;100396.28;;;14.88;100.00
45541;BME280;31265;49.680;8.608;2022-09-17T11:04:19;100390.97;;;15.42;100.00
45541;BME280;31265;49.680;8.608;2022-09-17T11:10:11;100384.25;;;17.10;100.00
45541;BME280;31265;49.680;8.608;2022-09-17T11:12:54;100386.72;;;17.39;95.91
45541;BME280;31265;49.680;8.608;2022-09-17T11:15:46;100379.00;;;17.87;89.07
45541;BME280;31265;49.680;8.608;2022-09-17T11:18:35;100379.38;;;17.81;89.34
45541;BME280;31265;49.680;8.608;2022-09-17T11:21:19;100363.03;;;17.30;95.67
45541;BME280;31265;49.680;8.608;2022-09-17T11:26:50;100372.19;;;17.42;84.26
45541;BME280;31265;49.680;8.608;2022-09-17T11:29:33;100375.63;;;18.14;81.89
45541;BME280;31265;49.680;8.608;2022-09-17T11:32:13;100371.56;;;17.32;84.34
45541;BME280;31265;49.680;8.608;2022-09-17T11:34:46;100372.19;;;17.31;80.33
45541;BME280;31265;49.680;8.608;2022-09-17T11:37:19;100360.97;;;17.42;86.45
45541;BME280;31265;49.680;8.608;2022-09-17T11:39:53;100357.19;;;17.38;80.47
45541;BME280;31265;49.680;8.608;2022-09-17T11:42:28;100361.78;;;17.69;82.40
45541;BME280;31265;49.680;8.608;2022-09-17T11:45:02;100360.84;;;17.40;80.57
45541;BME280;31265;49.680;8.608;2022-09-17T11:47:33;100354.16;;;16.65;83.23
45541;BME280;31265;49.680;8.608;2022-09-17T11:50:10;100355.72;;;17.25;84.53
45541;BME280;31265;49.680;8.608;2022-09-17T11:52:47;100356.34;;;17.24;78.32
45541;BME280;31265;49.680;8.608;2022-09-17T11:55:22;100351.81;;;17.42;78.39
45541;BME280;31265;49.680;8.608;2022-09-17T11:57:59;100345.97;;;17.50;81.68
45541;BME280;31265;49.680;8.608;2022-09-17T12:00:33;100348.03;;;17.61;74.40
45541;BME280;31265;49.680;8.608;2022-09-17T12:03:10;100340.81;;;17.70;89.35
45541;BME280;31265;49.680;8.608;2022-09-17T12:05:43;100332.00;;;17.87;75.10
45541;BME280;31265;49.680;8.608;2022-09-17T12:08:17;100331.53;;;17.67;71.58
45541;BME280;31265;49.680;8.608;2022-09-17T12:10:48;100329.59;;;17.70;72.17
45541;BME280;31265;49.680;8.608;2022-09-17T12:13:27;100324.31;;;18.25;63.18
45541;BME280;31265;49.680;8.608;2022-09-17T12:16:05;100328.59;;;17.77;64.64
45541;BME280;31265;49.680;8.608;2022-09-17T12:18:44;100317.19;;;17.49;66.25
45541;BME280;31265;49.680;8.608;2022-09-17T12:21:16;100312.44;;;17.40;62.54
45541;BME280;31265;49.680;8.608;2022-09-17T12:23:49;100317.44;;;17.41;55.71
45541;BME280;31265;49.680;8.608;2022-09-17T12:26:33;100325.25;;;16.96;56.17
45541;BME280;31265;49.680;8.608;2022-09-17T12:29:27;100324.94;;;16.68;59.44
45541;BME280;31265;49.680;8.608;2022-09-17T12:32:02;100323.19;;;16.40;59.17
45541;BME280;31265;49.680;8.608;2022-09-17T12:34:43;100315.25;;;16.36;59.38
45541;BME280;31265;49.680;8.608;2022-09-17T12:37:19;100318.53;;;16.44;59.06
45541;BME280;31265;49.680;8.608;2022-09-17T12:40:10;100321.56;;;17.52;56.63
45541;BME280;31265;49.680;8.608;2022-09-17T12:42:49;100316.47;;;17.49;58.23
45541;BME280;31265;49.680;8.608;2022-09-17T12:45:33;100312.84;;;17.95;55.31
45541;BME280;31265;49.680;8.608;2022-09-17T12:48:17;100306.59;;;17.97;55.38
45541;BME280;31265;49.680;8.608;2022-09-17T12:50:59;100297.69;;;17.51;55.33
45541;BME280;31265;49.680;8.608;2022-09-17T12:53:31;100301.22;;;17.40;58.69
45541;BME280;31265;49.680;8.608;2022-09-17T12:56:10;100292.66;;;17.61;55.85
45541;BME280;31265;49.680;8.608;2022-09-17T12:59:00;100298.59;;;17.68;57.12
45541;BME280;31265;49.680;8.608;2022-09-17T13:01:36;100293.78;;;17.33;58.69
45541;BME280;31265;49.680;8.608;2022-09-17T13:04:16;100288.03;;;17.42;57.56
45541;BME280;31265;49.680;8.608;2022-09-17T13:07:25;100287.69;;;18.23;54.00
45541;BME280;31265;49.680;8.608;2022-09-17T13:10:24;100288.72;;;19.08;50.82
45541;BME280;31265;49.680;8.608;2022-09-17T13:13:04;100293.47;;;19.61;50.56
45541;BME280;31265;49.680;8.608;2022-09-17T13:15:40;100295.38;;;19.15;49.16
45541;BME280;31265;49.680;8.608;2022-09-17T13:18:17;100273.41;;;17.93;53.09
45541;BME280;31265;49.680;8.608;2022-09-17T13:20:58;100278.88;;;17.66;55.50
45541;BME280;31265;49.680;8.608;2022-09-17T13:23:33;100274.69;;;17.67;57.95
45541;BME280;31265;49.680;8.608;2022-09-17T13:26:02;100258.75;;;17.57;56.04
45541;BME280;31265;49.680;8.608;2022-09-17T13:28:37;100266.13;;;17.39;60.08